• Join FlightAware (Why Join?)
  • Login
  • US Flag 
Trick or treat! (Boo!!) 
03:22AM EDT


 

Airport Tracker/Info


-or-


 

Live Flight TrackerFlight Track Log ✈ NDU31 ✈ 28-Apr-2013 ✈ KIKK - KOSU

Flight Track Log - Related Links

Times and Time Zones

All times are in EDT time to prevent confusion due to time zone crossing. See the NDU31 flight status page for this flight to view local times or setup timezone preferences in your user account.

Time Position Orientation Groundspeed Altitude Reporting Facility
EDT Latitude Longitude Course Direction KTS MPH feet Rate Location/Type
02:29PM 41.0822 -87.8369 117° Southeast 74 85 1,200  Level Chicago Center
02:30PM 41.0722 -87.8047 112° Southeast 79 91 1,900 540 Climbing Chicago Center
02:31PM 41.0592 -87.7767 122° Southeast 85 98 2,400 480 Climbing Chicago Center
02:32PM 41.0508 -87.7475 111° Southeast 85 98 3,000 540 Climbing Chicago Center
02:33PM 41.0260 -87.6015 106° East  Level Estimated
02:33PM 41.0456 -87.7175 103° East 85 98 3,600  Level Chicago Center
02:34PM 41.0117 -87.5640 117° Southeast  Level FlightAware Approximate
02:34PM 41.0408 -87.6850 101° East 87 100 4,100  Level Chicago Center
02:35PM 41.0339 -87.6472 104° East 88 101 4,700 480 Climbing Chicago Center
02:36PM 41.0283 -87.6161 103° East 88 101 5,100 360 Climbing Chicago Center
02:37PM 41.0219 -87.5842 105° East 89 102 5,500 420 Climbing Chicago Center
02:38PM 41.0156 -87.5519 105° East 90 104 6,000 360 Climbing Chicago Center
02:39PM 41.0092 -87.5211 105° East 89 102 6,300 360 Climbing Chicago Center
02:40PM 41.0028 -87.4831 103° East 89 102 6,800 300 Climbing Chicago Center
02:41PM 40.9972 -87.4503 103° East 91 105 7,000 120 Climbing Chicago Center
02:42PM 40.9872 -87.4108 109° East 111 128 7,100  Climbing Chicago Center
02:43PM 40.9792 -87.3697 105° East 115 132 7,000 -120 Descending Chicago Center
02:44PM 40.9739 -87.3278 99° East 115 132 6,900  Descending Chicago Center
02:45PM 40.9669 -87.2769 100° East 117 135 7,000  Climbing Chicago Center
02:46PM 40.9586 -87.2361 105° East 118 136 6,900  Descending Chicago Center
02:47PM 40.9569 -87.2178 97° East 117 135 7,000 60 Climbing Chicago Center
02:47PM 40.9500 -87.1967 114° Southeast 114 131 7,000  Level Chicago Center
02:48PM 40.9450 -87.1536 99° East 117 135 7,000  Level Chicago Center
02:49PM 40.9361 -87.1117 106° East 121 139 7,000  Level Chicago Center
02:50PM 40.9256 -87.0669 107° East 121 139 7,000  Level Chicago Center
02:51PM 40.9169 -87.0194 103° East 119 137 7,000  Level Chicago Center
02:52PM 40.9100 -86.9806 103° East 117 135 7,100  Climbing Chicago Center
02:53PM 40.9033 -86.9361 101° East 117 135 7,000 -60 Descending Chicago Center
02:54PM 40.8928 -86.8914 107° East 122 140 7,000  Level Chicago Center
02:55PM 40.8839 -86.8494 106° East 120 138 7,000  Level Chicago Center
02:56PM 40.8750 -86.8050 105° East 121 139 7,000  Level Chicago Center
02:57PM 40.8683 -86.7633 102° East 122 140 7,000  Level Chicago Center
02:58PM 40.8575 -86.7186 108° East 122 140 7,000  Level Chicago Center
02:59PM 40.8486 -86.6767 106° East 121 139 7,000  Level Chicago Center
03:00PM 40.8483 -86.6697 93° East 123 142 7,000  Level Chicago Center
03:01PM 40.8375 -86.6214 106° East 117 135 7,000  Level Chicago Center
03:01PM 40.8328 -86.5906 101° East 121 139 7,000  Level Chicago Center
03:02PM 40.8292 -86.5769 109° East 124 143 7,000  Level Chicago Center
03:02PM 40.8239 -86.5461 103° East 121 139 7,000  Level Chicago Center
03:03PM 40.8206 -86.5333 109° East 123 142 7,000  Level Chicago Center
03:03PM 40.8131 -86.5014 107° East 122 140 7,000  Level Chicago Center
03:04PM 40.8128 -86.4911 92° East 120 138 7,000  Level Chicago Center
03:04PM 40.8081 -86.4600 101° East 122 140 7,000  Level Chicago Center
03:05PM 40.8056 -86.4475 105° East 122 140 7,000  Level Chicago Center
03:05PM 40.7992 -86.4156 105° East 120 138 7,000  Level Chicago Center
03:06PM 40.7983 -86.4050 96° East 119 137 7,000  Level Chicago Center
03:06PM 40.7922 -86.3739 105° East 121 139 7,000  Level Chicago Center
03:07PM 40.7864 -86.3564 114° Southeast 121 139 7,000  Level Chicago Center
03:07PM 40.7792 -86.3292 109° East 121 139 7,000  Level Chicago Center
03:08PM 40.7758 -86.3136 106° East 123 142 7,000  Level Chicago Center
03:08PM 40.7681 -86.2903 114° Southeast 120 138 7,000  Level Chicago Center
03:09PM 40.7653 -86.2725 102° East 121 139 7,000  Level Chicago Center
03:09PM 40.7611 -86.2431 101° East 122 140 7,000  Level Chicago Center
03:10PM 40.7583 -86.2281 104° East 124 143 7,000 -120 Level Chicago Center
03:11PM 40.7522 -86.2014 107° East 124 143 6,900 -120 Descending Chicago Center
03:11PM 40.7486 -86.1839 105° East 127 146 6,900 60 Level Chicago Center
03:12PM 40.7411 -86.1569 110° East 124 143 7,000 60 Climbing Chicago Center
03:12PM 40.7361 -86.1317 105° East 126 145 7,000  Level Chicago Center
03:13PM 40.7319 -86.1153 109° East 122 140 7,000  Level Chicago Center
03:13PM 40.7297 -86.0889 96° East 122 140 7,000  Level Chicago Center
03:14PM 40.7231 -86.0444 101° East 123 142 7,000  Level Chicago Center
03:15PM 40.7172 -86.0006 100° East 123 142 7,000  Level Chicago Center
03:16PM 40.7069 -85.9564 107° East 125 144 7,000  Level Chicago Center
03:17PM 40.6969 -85.9044 104° East 124 143 7,000  Level Chicago Center
03:18PM 40.6881 -85.8614 105° East 123 142 7,000  Level Chicago Center
03:19PM 40.6789 -85.8158 105° East 126 145 7,000  Level Chicago Center
03:20PM 40.6700 -85.7706 104° East 125 144 7,000  Level Chicago Center
03:21PM 40.6589 -85.7267 108° East 124 143 7,000 -60 Level Chicago Center
03:22PM 40.6478 -85.6831 109° East 125 144 6,900  Descending Chicago Center
03:23PM 40.6408 -85.6383 102° East 124 143 7,000  Climbing Chicago Center
03:24PM 40.6306 -85.5878 105° East 123 142 7,000  Level Chicago Center
03:26PM 40.6228 -85.5431 103° East 123 142 7,100  Climbing Chicago Center
03:27PM 40.6133 -85.4981 105° East 126 145 7,100 -60 Level Chicago Center
03:28PM 40.6042 -85.4531 105° East 127 146 7,000 -60 Descending Chicago Center
03:29PM 40.5922 -85.4111 111° Southeast 123 142 7,000 -60 Level Chicago Center
03:30PM 40.5803 -85.3661 109° East 126 145 6,900  Descending Chicago Center
03:31PM 40.5692 -85.3214 108° East 128 147 7,000  Climbing Chicago Center
03:32PM 40.5622 -85.2692 100° East 126 145 6,900  Descending Chicago Center
03:33PM 40.5522 -85.2236 106° East 127 146 7,000  Climbing Chicago Center
03:34PM 40.5431 -85.1806 106° East 124 143 7,000  Level Chicago Center
03:35PM 40.5339 -85.1361 105° East 125 144 7,000  Level Chicago Center
03:36PM 40.5269 -85.1081 108° East 126 145 7,000  Level Indianapolis Center
03:37PM 40.5158 -85.0550 105° East 127 146 7,100  Climbing Indianapolis Center
03:38PM 40.5067 -85.0086 105° East 129 148 7,100  Level Indianapolis Center
03:39PM 40.4978 -84.9656 105° East 127 146 7,100 -60 Level Indianapolis Center
03:40PM 40.4872 -84.9211 107° East 125 144 7,000 -60 Descending Indianapolis Center
03:41PM 40.4781 -84.8772 105° East 125 144 7,000  Level Indianapolis Center
03:42PM 40.4722 -84.8311 99° East 126 145 7,000  Level Indianapolis Center
03:43PM 40.4653 -84.7856 101° East 126 145 7,000  Level Indianapolis Center
03:44PM 40.4567 -84.7328 102° East 126 145 7,000  Level Indianapolis Center
03:45PM 40.4486 -84.6997 108° East 124 143 7,100  Climbing Indianapolis Center
03:45PM 40.4444 -84.6917 124° Southeast 122 140 7,000 -120 Descending Indianapolis Center
03:46PM 40.4369 -84.6456 102° East 126 145 7,000 60 Level Indianapolis Center
03:46PM 40.4317 -84.6258 109° East 126 145 7,100 60 Climbing Indianapolis Center
03:47PM 40.4250 -84.6025 111° Southeast 125 144 7,100  Level Indianapolis Center
03:47PM 40.4192 -84.5747 105° East 125 144 7,100  Level Indianapolis Center
03:48PM 40.4133 -84.5586 115° Southeast 125 144 7,100  Level Indianapolis Center
03:48PM 40.4058 -84.5319 110° East 127 146 7,100 -120 Level Indianapolis Center
03:49PM 40.4000 -84.5144 114° Southeast 128 147 7,000  Descending Indianapolis Center
03:50PM 40.3931 -84.4833 106° East 130 150 7,100  Climbing Indianapolis Center
03:50PM 40.3897 -84.4689 107° East 131 151 7,000  Descending Indianapolis Center
03:51PM 40.3803 -84.4322 109° East 130 150 7,100 60 Climbing Indianapolis Center
03:51PM 40.3789 -84.4153 96° East 129 148 7,100  Level Indianapolis Center
03:52PM 40.3753 -84.3906 101° East 129 148 7,100 -120 Level Indianapolis Center
03:52PM 40.3706 -84.3689 106° East 129 148 7,000  Descending Indianapolis Center
03:53PM 40.3642 -84.3453 110° East 128 147 7,100  Climbing Indianapolis Center
03:53PM 40.3600 -84.3247 105° East 128 147 7,000  Descending Indianapolis Center
03:54PM 40.3528 -84.3025 113° Southeast 127 146 7,100  Climbing Indianapolis Center
03:54PM 40.3497 -84.2794 100° East 128 147 7,000  Descending Indianapolis Center
03:55PM 40.3439 -84.2575 109° East 127 146 7,100 60 Climbing Indianapolis Center
03:55PM 40.3392 -84.2342 105° East 129 148 7,100  Level Indianapolis Center
03:56PM 40.3331 -84.2069 106° East 129 148 7,100 -120 Level Indianapolis Center
03:56PM 40.3311 -84.1897 98° East 126 145 7,000  Descending Indianapolis Center
03:57PM 40.3261 -84.1647 105° East 126 145 7,100 60 Climbing Indianapolis Center
03:57PM 40.3219 -84.1453 106° East 126 145 7,100 -120 Level Indianapolis Center
03:58PM 40.3169 -84.1197 104° East 125 144 7,000  Descending Indianapolis Center
03:58PM 40.3117 -84.0992 109° East 127 146 7,100 60 Climbing Indianapolis Center
03:59PM 40.3078 -84.0747 102° East 128 147 7,100 -120 Level Indianapolis Center
03:59PM 40.3022 -84.0447 104° East 129 148 7,000  Descending Indianapolis Center
04:00PM 40.2967 -84.0294 115° Southeast 130 150 7,100  Climbing Indianapolis Center
04:00PM 40.2900 -84.0017 107° East 128 147 7,000  Descending Indianapolis Center
04:01PM 40.2833 -83.9842 117° Southeast 125 144 7,100  Climbing Indianapolis Center
04:01PM 40.2800 -83.9567 99° East 127 146 7,000  Descending Indianapolis Center
04:02PM 40.2744 -83.9364 110° East 128 147 7,100 -120 Climbing Indianapolis Center
04:02PM 40.2700 -83.9122 104° East 127 146 6,900 -120 Descending Indianapolis Center
04:03PM 40.2653 -83.8914 107° East 128 147 7,000  Climbing Indianapolis Center
04:03PM 40.2589 -83.8681 110° East 127 146 6,900 60 Descending Indianapolis Center
04:04PM 40.2536 -83.8517 113° Southeast 125 144 7,100  Climbing Indianapolis Center
04:05PM 40.2483 -83.8239 104° East 126 145 6,900 -120 Descending Indianapolis Center
04:05PM 40.2422 -83.8064 115° Southeast 129 148 7,000 -120 Climbing Indianapolis Center
04:06PM 40.2375 -83.7772 102° East 129 148 6,800 60 Descending Indianapolis Center
04:06PM 40.2333 -83.7589 107° East 130 150 7,100 60 Climbing Indianapolis Center
04:07PM 40.2283 -83.7336 105° East 127 146 6,900 -120 Descending Indianapolis Center
04:07PM 40.2242 -83.7139 105° East 127 146 7,000  Climbing Indianapolis Center
04:08PM 40.2200 -83.6794 99° East 127 146 6,900 60 Descending Indianapolis Center
04:08PM 40.2169 -83.6694 112° Southeast 127 146 7,100  Climbing Indianapolis Center
04:09PM 40.2094 -83.6339 105° East 128 147 6,900 -180 Descending Indianapolis Center
04:10PM 40.1978 -83.5892 109° East 129 148 6,800 -60 Descending Indianapolis Center
04:11PM 40.1844 -83.5461 112° Southeast 127 146 6,800 -300 Level Indianapolis Center
04:12PM 40.1639 -83.5086 126° Southeast 126 145 6,200 -720 Descending Indianapolis Center
04:13PM 40.1439 -83.4686 123° Southeast 128 147 5,400 -840 Descending Indianapolis Center
04:14PM 40.1242 -83.4319 125° Southeast 126 145 4,500 -900 Descending Indianapolis Center
04:15PM 40.1011 -83.4019 135° Southeast 119 137 3,600 -780 Descending Indianapolis Center
04:16PM 40.0886 -83.3589 111° Southeast 113 130 3,000 -300 Descending Indianapolis Center
04:17PM 40.0781 -83.3242 112° Southeast 106 122 3,000  Level Indianapolis Center
04:18PM 40.0683 -83.2908 111° Southeast 98 113 3,100  Climbing Indianapolis Center
04:19PM 40.0692 -83.2503 88° East 117 135 3,000 -120 Descending Indianapolis Center
04:20PM 40.0722 -83.2081 85° East 112 129 2,900 -300 Descending Indianapolis Center
04:21PM 40.0725 -83.1717 89° East 94 108 2,400 -480 Descending Indianapolis Center
04:22PM 40.0744 -83.1444 85° East 80 92 2,000 -540 Descending Indianapolis Center
04:23PM 40.0756 -83.1106 88° East 87 100 1,300 -420 Descending Indianapolis Center
04:24PM 40.0769 -83.0814 86° East 86 99 1,100 -240 Descending Indianapolis Center
04:26PM 40.0798 -83.0732 114° Southeast  Level Estimated